sensor_id;sensor_type;location;lat;lon;timestamp;pressure;altitude;pressure_sealevel;temperature;humidity
37852;BME280;23691;52.486;4.650;2023-04-08T00:01:42;102346.44;;;9.53;84.50
37852;BME280;23691;52.486;4.650;2023-04-08T00:04:07;102349.22;;;9.51;84.20
37852;BME280;23691;52.486;4.650;2023-04-08T00:06:34;102348.59;;;9.48;84.05
37852;BME280;23691;52.486;4.650;2023-04-08T00:08:59;102353.31;;;9.44;83.85
37852;BME280;23691;52.486;4.650;2023-04-08T00:11:25;102347.38;;;9.40;83.80
37852;BME280;23691;52.486;4.650;2023-04-08T00:13:50;102357.59;;;9.35;83.73
37852;BME280;23691;52.486;4.650;2023-04-08T00:16:16;102352.47;;;9.32;83.92
37852;BME280;23691;52.486;4.650;2023-04-08T00:18:47;102349.19;;;9.29;83.42
37852;BME280;23691;52.486;4.650;2023-04-08T00:21:13;102355.88;;;9.23;83.55
37852;BME280;23691;52.486;4.650;2023-04-08T00:23:42;102352.56;;;9.19;83.26
37852;BME280;23691;52.486;4.650;2023-04-08T00:26:08;102350.38;;;9.13;83.36
37852;BME280;23691;52.486;4.650;2023-04-08T00:28:33;102359.34;;;9.12;83.49
37852;BME280;23691;52.486;4.650;2023-04-08T00:30:58;102358.75;;;9.09;83.72
37852;BME280;23691;52.486;4.650;2023-04-08T00:33:24;102358.25;;;9.03;83.39
37852;BME280;23691;52.486;4.650;2023-04-08T00:35:50;102354.94;;;9.00;83.62
37852;BME280;23691;52.486;4.650;2023-04-08T00:38:15;102355.09;;;8.98;83.66
37852;BME280;23691;52.486;4.650;2023-04-08T00:40:41;102358.84;;;8.96;83.63
37852;BME280;23691;52.486;4.650;2023-04-08T00:43:06;102357.97;;;8.95;83.97
37852;BME280;23691;52.486;4.650;2023-04-08T00:45:32;102357.97;;;8.95;83.95
37852;BME280;23691;52.486;4.650;2023-04-08T00:47:58;102360.78;;;8.94;83.76
37852;BME280;23691;52.486;4.650;2023-04-08T00:50:23;102360.13;;;8.90;83.86
37852;BME280;23691;52.486;4.650;2023-04-08T00:52:54;102356.00;;;8.86;83.57
37852;BME280;23691;52.486;4.650;2023-04-08T00:55:20;102358.91;;;8.83;83.54
37852;BME280;23691;52.486;4.650;2023-04-08T00:57:46;102360.22;;;8.77;83.37
37852;BME280;23691;52.486;4.650;2023-04-08T01:00:13;102364.06;;;8.73;83.36
37852;BME280;23691;52.486;4.650;2023-04-08T01:03:06;102370.50;;;8.71;83.26
37852;BME280;23691;52.486;4.650;2023-04-08T01:05:55;102367.22;;;8.67;83.12
37852;BME280;23691;52.486;4.650;2023-04-08T01:08:25;102370.31;;;8.61;83.12
37852;BME280;23691;52.486;4.650;2023-04-08T01:10:53;102369.72;;;8.57;83.18
37852;BME280;23691;52.486;4.650;2023-04-08T01:13:23;102372.38;;;8.57;83.36
37852;BME280;23691;52.486;4.650;2023-04-08T01:15:50;102371.53;;;8.57;83.51
37852;BME280;23691;52.486;4.650;2023-04-08T01:18:17;102367.91;;;8.58;83.30
37852;BME280;23691;52.486;4.650;2023-04-08T01:20:45;102369.81;;;8.56;83.56
37852;BME280;23691;52.486;4.650;2023-04-08T01:23:38;102367.28;;;8.54;83.24
37852;BME280;23691;52.486;4.650;2023-04-08T01:26:04;102376.56;;;8.49;83.63
37852;BME280;23691;52.486;4.650;2023-04-08T01:28:30;102376.47;;;8.50;83.64
37852;BME280;23691;52.486;4.650;2023-04-08T01:30:59;102370.28;;;8.50;83.32
37852;BME280;23691;52.486;4.650;2023-04-08T01:33:26;102371.13;;;8.50;83.66
37852;BME280;23691;52.486;4.650;2023-04-08T01:35:54;102376.56;;;8.49;83.43
37852;BME280;23691;52.486;4.650;2023-04-08T01:38:22;102379.38;;;8.47;83.49
37852;BME280;23691;52.486;4.650;2023-04-08T01:40:48;102381.41;;;8.44;83.62
37852;BME280;23691;52.486;4.650;2023-04-08T01:43:16;102373.53;;;8.42;83.85
37852;BME280;23691;52.486;4.650;2023-04-08T01:45:46;102380.78;;;8.40;83.73
37852;BME280;23691;52.486;4.650;2023-04-08T01:48:13;102381.00;;;8.37;83.66
37852;BME280;23691;52.486;4.650;2023-04-08T01:50:41;102384.94;;;8.31;83.79
37852;BME280;23691;52.486;4.650;2023-04-08T01:53:08;102381.53;;;8.29;83.92
37852;BME280;23691;52.486;4.650;2023-04-08T01:55:35;102380.69;;;8.29;84.02
37852;BME280;23691;52.486;4.650;2023-04-08T01:58:02;102390.41;;;8.30;83.74
37852;BME280;23691;52.486;4.650;2023-04-08T02:00:30;102384.31;;;8.28;84.00
37852;BME280;23691;52.486;4.650;2023-04-08T02:02:57;102390.59;;;8.27;84.21
37852;BME280;23691;52.486;4.650;2023-04-08T02:05:23;102389.75;;;8.26;83.99
37852;BME280;23691;52.486;4.650;2023-04-08T02:07:49;102390.09;;;8.22;84.30
37852;BME280;23691;52.486;4.650;2023-04-08T02:10:15;102391.63;;;8.13;84.74
37852;BME280;23691;52.486;4.650;2023-04-08T02:12:41;102382.97;;;8.09;84.99
37852;BME280;23691;52.486;4.650;2023-04-08T02:15:08;102387.91;;;8.03;85.33
37852;BME280;23691;52.486;4.650;2023-04-08T02:17:44;102389.19;;;7.97;85.74
37852;BME280;23691;52.486;4.650;2023-04-08T02:20:17;102389.63;;;7.91;86.00
37852;BME280;23691;52.486;4.650;2023-04-08T02:22:56;102393.25;;;7.90;86.32
37852;BME280;23691;52.486;4.650;2023-04-08T02:25:24;102393.16;;;7.91;86.22
37852;BME280;23691;52.486;4.650;2023-04-08T02:27:51;102395.81;;;7.91;86.00
37852;BME280;23691;52.486;4.650;2023-04-08T02:30:17;102392.72;;;7.85;85.95
37852;BME280;23691;52.486;4.650;2023-04-08T02:32:44;102403.84;;;7.79;86.30
37852;BME280;23691;52.486;4.650;2023-04-08T02:35:12;102397.00;;;7.74;86.51
37852;BME280;23691;52.486;4.650;2023-04-08T02:37:39;102392.97;;;7.69;86.66
37852;BME280;23691;52.486;4.650;2023-04-08T02:40:28;102397.22;;;7.71;86.59
37852;BME280;23691;52.486;4.650;2023-04-08T02:42:54;102407.34;;;7.66;86.53
37852;BME280;23691;52.486;4.650;2023-04-08T02:45:19;102407.56;;;7.63;86.39
37852;BME280;23691;52.486;4.650;2023-04-08T02:47:45;102409.38;;;7.63;86.45
37852;BME280;23691;52.486;4.650;2023-04-08T02:50:10;102405.84;;;7.62;86.33
37852;BME280;23691;52.486;4.650;2023-04-08T02:52:36;102411.31;;;7.61;86.22
37852;BME280;23691;52.486;4.650;2023-04-08T02:55:01;102403.63;;;7.56;86.49
37852;BME280;23691;52.486;4.650;2023-04-08T02:57:27;102412.56;;;7.55;86.18
37852;BME280;23691;52.486;4.650;2023-04-08T02:59:52;102415.13;;;7.57;86.04
37852;BME280;23691;52.486;4.650;2023-04-08T03:02:17;102420.56;;;7.55;85.81
37852;BME280;23691;52.486;4.650;2023-04-08T03:04:43;102426.75;;;7.56;85.69
37852;BME280;23691;52.486;4.650;2023-04-08T03:07:08;102426.00;;;7.53;85.62
37852;BME280;23691;52.486;4.650;2023-04-08T03:09:33;102423.44;;;7.52;85.46
37852;BME280;23691;52.486;4.650;2023-04-08T03:11:59;102423.34;;;7.53;85.50
37852;BME280;23691;52.486;4.650;2023-04-08T03:14:24;102432.19;;;7.54;85.33
37852;BME280;23691;52.486;4.650;2023-04-08T03:16:50;102433.34;;;7.50;85.18
37852;BME280;23691;52.486;4.650;2023-04-08T03:19:15;102427.38;;;7.46;84.90
37852;BME280;23691;52.486;4.650;2023-04-08T03:21:41;102432.06;;;7.43;84.87
37852;BME280;23691;52.486;4.650;2023-04-08T03:24:06;102428.63;;;7.41;84.29
37852;BME280;23691;52.486;4.650;2023-04-08T03:26:31;102431.44;;;7.39;84.62
37852;BME280;23691;52.486;4.650;2023-04-08T03:28:57;102435.16;;;7.37;84.64
37852;BME280;23691;52.486;4.650;2023-04-08T03:31:22;102431.81;;;7.33;84.75
37852;BME280;23691;52.486;4.650;2023-04-08T03:33:47;102432.03;;;7.30;84.45
37852;BME280;23691;52.486;4.650;2023-04-08T03:36:13;102435.56;;;7.30;84.46
37852;BME280;23691;52.486;4.650;2023-04-08T03:38:38;102435.69;;;7.29;84.42
37852;BME280;23691;52.486;4.650;2023-04-08T03:41:03;102440.88;;;7.30;84.16
37852;BME280;23691;52.486;4.650;2023-04-08T03:43:29;102442.78;;;7.28;83.93
37852;BME280;23691;52.486;4.650;2023-04-08T03:45:55;102451.00;;;7.25;83.90
37852;BME280;23691;52.486;4.650;2023-04-08T03:48:21;102445.88;;;7.22;83.82
37852;BME280;23691;52.486;4.650;2023-04-08T03:50:46;102451.19;;;7.22;84.00
37852;BME280;23691;52.486;4.650;2023-04-08T03:53:12;102452.34;;;7.18;83.87
37852;BME280;23691;52.486;4.650;2023-04-08T03:55:38;102456.06;;;7.16;83.84
37852;BME280;23691;52.486;4.650;2023-04-08T03:58:03;102451.81;;;7.13;83.75
37852;BME280;23691;52.486;4.650;2023-04-08T04:00:29;102450.34;;;7.09;83.58
37852;BME280;23691;52.486;4.650;2023-04-08T04:02:54;102454.78;;;7.08;83.47
37852;BME280;23691;52.486;4.650;2023-04-08T04:05:20;102456.81;;;7.05;83.53
37852;BME280;23691;52.486;4.650;2023-04-08T04:07:46;102455.97;;;7.04;83.28
37852;BME280;23691;52.486;4.650;2023-04-08T04:10:11;102448.81;;;7.05;83.09
37852;BME280;23691;52.486;4.650;2023-04-08T04:12:36;102455.19;;;7.02;82.88
37852;BME280;23691;52.486;4.650;2023-04-08T04:15:02;102456.13;;;7.01;83.00
37852;BME280;23691;52.486;4.650;2023-04-08T04:17:28;102464.34;;;6.98;82.84
37852;BME280;23691;52.486;4.650;2023-04-08T04:19:53;102459.31;;;6.94;82.94
37852;BME280;23691;52.486;4.650;2023-04-08T04:22:19;102462.94;;;6.93;82.74
37852;BME280;23691;52.486;4.650;2023-04-08T04:24:48;102463.91;;;6.92;82.72
37852;BME280;23691;52.486;4.650;2023-04-08T04:27:14;102467.72;;;6.87;82.67
37852;BME280;23691;52.486;4.650;2023-04-08T04:29:42;102469.41;;;6.88;82.56
37852;BME280;23691;52.486;4.650;2023-04-08T04:32:07;102472.19;;;6.87;82.38
37852;BME280;23691;52.486;4.650;2023-04-08T04:34:33;102470.75;;;6.81;82.39
37852;BME280;23691;52.486;4.650;2023-04-08T04:36:58;102481.59;;;6.78;82.49
37852;BME280;23691;52.486;4.650;2023-04-08T04:39:24;102477.44;;;6.74;82.11
37852;BME280;23691;52.486;4.650;2023-04-08T04:41:49;102475.72;;;6.73;82.22
37852;BME280;23691;52.486;4.650;2023-04-08T04:44:15;102488.28;;;6.71;82.13
37852;BME280;23691;52.486;4.650;2023-04-08T04:46:40;102487.44;;;6.71;82.11
37852;BME280;23691;52.486;4.650;2023-04-08T04:49:06;102497.31;;;6.69;81.99
37852;BME280;23691;52.486;4.650;2023-04-08T04:51:31;102492.28;;;6.64;81.85
37852;BME280;23691;52.486;4.650;2023-04-08T04:54:00;102490.78;;;6.60;81.68
37852;BME280;23691;52.486;4.650;2023-04-08T04:56:25;102491.84;;;6.57;81.86
37852;BME280;23691;52.486;4.650;2023-04-08T04:58:51;102495.56;;;6.55;81.67
37852;BME280;23691;52.486;4.650;2023-04-08T05:01:16;102491.28;;;6.52;81.63
37852;BME280;23691;52.486;4.650;2023-04-08T05:03:42;102494.13;;;6.49;81.63
37852;BME280;23691;52.486;4.650;2023-04-08T05:06:07;102496.91;;;6.48;81.83
37852;BME280;23691;52.486;4.650;2023-04-08T05:08:33;102491.47;;;6.49;81.56
37852;BME280;23691;52.486;4.650;2023-04-08T05:10:58;102498.59;;;6.49;81.53
37852;BME280;23691;52.486;4.650;2023-04-08T05:13:27;102501.44;;;6.45;81.18
37852;BME280;23691;52.486;4.650;2023-04-08T05:15:52;102502.38;;;6.44;81.44
37852;BME280;23691;52.486;4.650;2023-04-08T05:18:18;102506.84;;;6.44;81.23
37852;BME280;23691;52.486;4.650;2023-04-08T05:20:44;102499.84;;;6.43;81.14
37852;BME280;23691;52.486;4.650;2023-04-08T05:23:09;102497.19;;;6.43;81.14
37852;BME280;23691;52.486;4.650;2023-04-08T05:25:35;102506.22;;;6.40;81.02
37852;BME280;23691;52.486;4.650;2023-04-08T05:28:00;102506.22;;;6.40;81.06
37852;BME280;23691;52.486;4.650;2023-04-08T05:30:26;102509.78;;;6.39;80.79
37852;BME280;23691;52.486;4.650;2023-04-08T05:32:51;102505.25;;;6.41;80.97
37852;BME280;23691;52.486;4.650;2023-04-08T05:35:17;102508.88;;;6.40;80.92
37852;BME280;23691;52.486;4.650;2023-04-08T05:37:42;102512.38;;;6.41;80.78
37852;BME280;23691;52.486;4.650;2023-04-08T05:40:08;102515.78;;;6.43;80.66
37852;BME280;23691;52.486;4.650;2023-04-08T05:42:33;102521.00;;;6.44;80.73
37852;BME280;23691;52.486;4.650;2023-04-08T05:44:59;102517.41;;;6.45;80.59
37852;BME280;23691;52.486;4.650;2023-04-08T05:47:24;102520.81;;;6.48;80.70
37852;BME280;23691;52.486;4.650;2023-04-08T05:49:50;102530.50;;;6.49;80.62
37852;BME280;23691;52.486;4.650;2023-04-08T05:52:15;102534.00;;;6.49;80.65
37852;BME280;23691;52.486;4.650;2023-04-08T05:54:44;102537.63;;;6.48;80.59
37852;BME280;23691;52.486;4.650;2023-04-08T05:57:10;102533.91;;;6.51;80.53
37852;BME280;23691;52.486;4.650;2023-04-08T05:59:35;102536.56;;;6.51;80.71
37852;BME280;23691;52.486;4.650;2023-04-08T06:02:01;102543.50;;;6.53;80.42
37852;BME280;23691;52.486;4.650;2023-04-08T06:04:26;102551.00;;;6.61;80.39
37852;BME280;23691;52.486;4.650;2023-04-08T06:06:51;102552.59;;;6.63;80.29
37852;BME280;23691;52.486;4.650;2023-04-08T06:09:17;102556.88;;;6.66;80.47
37852;BME280;23691;52.486;4.650;2023-04-08T06:11:42;102560.09;;;6.71;80.38
37852;BME280;23691;52.486;4.650;2023-04-08T06:14:08;102565.34;;;6.73;80.23
37852;BME280;23691;52.486;4.650;2023-04-08T06:16:33;102567.72;;;6.77;80.41
37852;BME280;23691;52.486;4.650;2023-04-08T06:18:58;102570.91;;;6.82;80.29
37852;BME280;23691;52.486;4.650;2023-04-08T06:21:24;102569.75;;;6.86;80.33
37852;BME280;23691;52.486;4.650;2023-04-08T06:23:50;102570.34;;;6.92;80.48
37852;BME280;23691;52.486;4.650;2023-04-08T06:26:16;102575.34;;;6.96;80.15
37852;BME280;23691;52.486;4.650;2023-04-08T06:28:42;102581.44;;;6.98;80.19
37852;BME280;23691;52.486;4.650;2023-04-08T06:31:07;102585.41;;;7.05;80.35
37852;BME280;23691;52.486;4.650;2023-04-08T06:33:33;102584.81;;;7.15;80.29
37852;BME280;23691;52.486;4.650;2023-04-08T06:36:06;102587.06;;;7.21;80.21
37852;BME280;23691;52.486;4.650;2023-04-08T06:38:32;102593.69;;;7.28;80.10
37852;BME280;23691;52.486;4.650;2023-04-08T06:41:01;102595.97;;;7.34;80.38
37852;BME280;23691;52.486;4.650;2023-04-08T06:43:27;102603.53;;;7.40;80.13
37852;BME280;23691;52.486;4.650;2023-04-08T06:45:53;102606.59;;;7.48;80.03
37852;BME280;23691;52.486;4.650;2023-04-08T06:48:18;102603.41;;;7.56;79.68
37852;BME280;23691;52.486;4.650;2023-04-08T06:50:44;102608.22;;;7.64;79.93
37852;BME280;23691;52.486;4.650;2023-04-08T06:53:10;102607.78;;;7.70;79.72
37852;BME280;23691;52.486;4.650;2023-04-08T06:55:35;102610.81;;;7.78;79.66
37852;BME280;23691;52.486;4.650;2023-04-08T06:58:00;102610.59;;;7.81;79.70
37852;BME280;23691;52.486;4.650;2023-04-08T07:00:26;102614.44;;;7.90;79.76
37852;BME280;23691;52.486;4.650;2023-04-08T07:02:51;102620.13;;;7.98;79.73
37852;BME280;23691;52.486;4.650;2023-04-08T07:05:17;102619.91;;;8.01;79.54
37852;BME280;23691;52.486;4.650;2023-04-08T07:07:42;102622.28;;;8.06;79.60
37852;BME280;23691;52.486;4.650;2023-04-08T07:10:08;102618.31;;;8.11;79.16
37852;BME280;23691;52.486;4.650;2023-04-08T07:12:33;102626.66;;;8.20;79.31
37852;BME280;23691;52.486;4.650;2023-04-08T07:14:59;102622.59;;;8.27;79.02
37852;BME280;23691;52.486;4.650;2023-04-08T07:17:24;102618.66;;;8.32;78.96
37852;BME280;23691;52.486;4.650;2023-04-08T07:19:50;102632.63;;;8.36;78.80
37852;BME280;23691;52.486;4.650;2023-04-08T07:22:15;102630.94;;;8.35;78.72
37852;BME280;23691;52.486;4.650;2023-04-08T07:24:41;102633.84;;;8.45;78.48
37852;BME280;23691;52.486;4.650;2023-04-08T07:27:09;102631.50;;;8.53;78.35
37852;BME280;23691;52.486;4.650;2023-04-08T07:29:35;102638.09;;;8.60;78.18
37852;BME280;23691;52.486;4.650;2023-04-08T07:32:00;102643.13;;;8.65;78.24
37852;BME280;23691;52.486;4.650;2023-04-08T07:34:25;102644.28;;;8.73;78.00
37852;BME280;23691;52.486;4.650;2023-04-08T07:36:51;102652.47;;;8.83;77.79
37852;BME280;23691;52.486;4.650;2023-04-08T07:39:16;102651.84;;;8.92;77.46
37852;BME280;23691;52.486;4.650;2023-04-08T07:41:43;102649.59;;;8.99;77.44
37852;BME280;23691;52.486;4.650;2023-04-08T07:44:08;102648.94;;;9.08;77.21
37852;BME280;23691;52.486;4.650;2023-04-08T07:46:37;102649.22;;;9.16;77.30
37852;BME280;23691;52.486;4.650;2023-04-08T07:49:05;102649.41;;;9.26;77.04
37852;BME280;23691;52.486;4.650;2023-04-08T07:51:30;102653.44;;;9.32;76.96
37852;BME280;23691;52.486;4.650;2023-04-08T07:53:56;102646.59;;;9.40;76.89
37852;BME280;23691;52.486;4.650;2023-04-08T07:56:21;102651.03;;;9.53;76.61
37852;BME280;23691;52.486;4.650;2023-04-08T07:58:47;102655.66;;;9.62;76.69
37852;BME280;23691;52.486;4.650;2023-04-08T08:01:18;102653.28;;;9.70;76.18
37852;BME280;23691;52.486;4.650;2023-04-08T08:03:46;102668.19;;;9.85;76.34
37852;BME280;23691;52.486;4.650;2023-04-08T08:06:12;102660.16;;;9.85;76.17
37852;BME280;23691;52.486;4.650;2023-04-08T08:08:37;102660.91;;;9.87;76.34
37852;BME280;23691;52.486;4.650;2023-04-08T08:11:03;102656.28;;;9.89;76.45
37852;BME280;23691;52.486;4.650;2023-04-08T08:13:28;102657.41;;;9.98;75.85
37852;BME280;23691;52.486;4.650;2023-04-08T08:15:53;102661.06;;;10.08;76.01
37852;BME280;23691;52.486;4.650;2023-04-08T08:18:19;102664.03;;;10.17;75.49
37852;BME280;23691;52.486;4.650;2023-04-08T08:20:45;102662.94;;;10.19;75.43
37852;BME280;23691;52.486;4.650;2023-04-08T08:23:11;102660.63;;;10.26;75.27
37852;BME280;23691;52.486;4.650;2023-04-08T08:25:36;102671.50;;;10.36;75.27
37852;BME280;23691;52.486;4.650;2023-04-08T08:28:01;102665.69;;;10.42;74.99
37852;BME280;23691;52.486;4.650;2023-04-08T08:30:27;102667.53;;;10.52;75.00
37852;BME280;23691;52.486;4.650;2023-04-08T08:32:52;102670.22;;;10.64;74.83
37852;BME280;23691;52.486;4.650;2023-04-08T08:35:18;102672.78;;;10.77;74.81
37852;BME280;23691;52.486;4.650;2023-04-08T08:37:43;102674.50;;;10.89;74.69
37852;BME280;23691;52.486;4.650;2023-04-08T08:40:09;102673.63;;;11.00;74.51
37852;BME280;23691;52.486;4.650;2023-04-08T08:42:35;102670.97;;;11.11;74.71
37852;BME280;23691;52.486;4.650;2023-04-08T08:45:02;102681.16;;;11.17;74.53
37852;BME280;23691;52.486;4.650;2023-04-08T08:47:27;102683.22;;;11.25;74.82
37852;BME280;23691;52.486;4.650;2023-04-08T08:49:53;102686.16;;;11.33;74.41
37852;BME280;23691;52.486;4.650;2023-04-08T08:52:18;102682.00;;;11.40;74.50
37852;BME280;23691;52.486;4.650;2023-04-08T08:54:44;102682.31;;;11.47;74.52
37852;BME280;23691;52.486;4.650;2023-04-08T08:57:20;102688.31;;;11.50;74.21
37852;BME280;23691;52.486;4.650;2023-04-08T08:59:46;102686.84;;;11.46;73.93
37852;BME280;23691;52.486;4.650;2023-04-08T09:02:28;102686.47;;;11.51;74.04
37852;BME280;23691;52.486;4.650;2023-04-08T09:07:23;102679.25;;;11.63;73.74
37852;BME280;23691;52.486;4.650;2023-04-08T09:09:51;102685.09;;;11.68;73.58
37852;BME280;23691;52.486;4.650;2023-04-08T09:12:16;102680.31;;;11.71;73.43
37852;BME280;23691;52.486;4.650;2023-04-08T09:14:42;102681.75;;;11.75;73.08
37852;BME280;23691;52.486;4.650;2023-04-08T09:17:07;102686.03;;;11.78;72.88
37852;BME280;23691;52.486;4.650;2023-04-08T09:19:33;102686.97;;;11.88;72.60
37852;BME280;23691;52.486;4.650;2023-04-08T09:22:08;102688.78;;;11.99;72.34
37852;BME280;23691;52.486;4.650;2023-04-08T09:24:35;102692.16;;;12.01;72.09
37852;BME280;23691;52.486;4.650;2023-04-08T09:27:02;102690.94;;;12.05;71.74
37852;BME280;23691;52.486;4.650;2023-04-08T09:29:27;102688.13;;;12.07;71.73
37852;BME280;23691;52.486;4.650;2023-04-08T09:31:54;102685.06;;;12.11;71.30
37852;BME280;23691;52.486;4.650;2023-04-08T09:34:23;102694.31;;;12.18;70.92
37852;BME280;23691;52.486;4.650;2023-04-08T09:36:50;102681.72;;;12.19;70.64
37852;BME280;23691;52.486;4.650;2023-04-08T09:39:16;102688.69;;;12.21;70.21
37852;BME280;23691;52.486;4.650;2023-04-08T09:41:42;102683.66;;;12.28;70.10
37852;BME280;23691;52.486;4.650;2023-04-08T09:44:10;102687.34;;;12.37;69.89
37852;BME280;23691;52.486;4.650;2023-04-08T09:49:33;102690.88;;;12.58;69.44
37852;BME280;23691;52.486;4.650;2023-04-08T09:52:26;102686.09;;;12.62;68.82
37852;BME280;23691;52.486;4.650;2023-04-08T09:55:02;102687.25;;;12.69;68.93
37852;BME280;23691;52.486;4.650;2023-04-08T09:58:00;102688.44;;;12.76;68.55
37852;BME280;23691;52.486;4.650;2023-04-08T10:00:42;102692.41;;;12.82;68.50
37852;BME280;23691;52.486;4.650;2023-04-08T10:03:33;102690.75;;;12.91;68.30
37852;BME280;23691;52.486;4.650;2023-04-08T10:06:01;102691.94;;;12.98;68.28
37852;BME280;23691;52.486;4.650;2023-04-08T10:08:28;102695.91;;;13.03;67.95
37852;BME280;23691;52.486;4.650;2023-04-08T10:10:54;102692.94;;;13.06;67.86
37852;BME280;23691;52.486;4.650;2023-04-08T10:13:20;102699.63;;;13.12;67.47
37852;BME280;23691;52.486;4.650;2023-04-08T10:15:46;102695.94;;;13.13;67.16
37852;BME280;23691;52.486;4.650;2023-04-08T10:25:37;102695.50;;;13.48;66.86
37852;BME280;23691;52.486;4.650;2023-04-08T10:30:41;102705.16;;;13.70;66.19
37852;BME280;23691;52.486;4.650;2023-04-08T10:35:40;102694.13;;;13.73;65.56
37852;BME280;23691;52.486;4.650;2023-04-08T10:38:07;102700.19;;;13.75;65.61
37852;BME280;23691;52.486;4.650;2023-04-08T10:40:40;102697.09;;;13.80;65.72
37852;BME280;23691;52.486;4.650;2023-04-08T10:43:08;102698.53;;;13.84;65.47
37852;BME280;23691;52.486;4.650;2023-04-08T10:45:34;102695.41;;;13.89;65.09
37852;BME280;23691;52.486;4.650;2023-04-08T10:48:19;102693.56;;;13.89;65.30
37852;BME280;23691;52.486;4.650;2023-04-08T10:50:57;102690.31;;;13.95;64.89
37852;BME280;23691;52.486;4.650;2023-04-08T10:53:32;102697.81;;;14.02;64.74
37852;BME280;23691;52.486;4.650;2023-04-08T10:56:07;102693.84;;;14.06;64.53
37852;BME280;23691;52.486;4.650;2023-04-08T10:58:34;102689.72;;;14.11;64.28
37852;BME280;23691;52.486;4.650;2023-04-08T11:01:07;102688.47;;;14.25;64.26
37852;BME280;23691;52.486;4.650;2023-04-08T11:03:33;102692.69;;;14.37;64.02
37852;BME280;23691;52.486;4.650;2023-04-08T11:06:02;102690.66;;;14.49;63.99
37852;BME280;23691;52.486;4.650;2023-04-08T11:08:34;102689.69;;;14.60;64.02
37852;BME280;23691;52.486;4.650;2023-04-08T11:11:01;102694.78;;;14.63;63.32
37852;BME280;23691;52.486;4.650;2023-04-08T11:13:27;102713.09;;;14.59;63.04
37852;BME280;23691;52.486;4.650;2023-04-08T11:15:54;102702.88;;;14.53;63.19
37852;BME280;23691;52.486;4.650;2023-04-08T11:18:20;102696.91;;;14.50;62.92
37852;BME280;23691;52.486;4.650;2023-04-08T11:20:46;102686.28;;;14.48;62.49
37852;BME280;23691;52.486;4.650;2023-04-08T11:23:14;102693.22;;;14.51;62.58
37852;BME280;23691;52.486;4.650;2023-04-08T11:25:40;102682.44;;;14.60;62.17
37852;BME280;23691;52.486;4.650;2023-04-08T11:28:06;102682.16;;;14.64;62.18
37852;BME280;23691;52.486;4.650;2023-04-08T11:30:33;102676.91;;;14.72;61.84
37852;BME280;23691;52.486;4.650;2023-04-08T11:32:58;102673.59;;;14.78;61.60
37852;BME280;23691;52.486;4.650;2023-04-08T11:35:27;102663.94;;;14.85;61.08
37852;BME280;23691;52.486;4.650;2023-04-08T11:37:53;102664.31;;;14.90;60.62
37852;BME280;23691;52.486;4.650;2023-04-08T11:40:20;102672.91;;;15.03;60.48
37852;BME280;23691;52.486;4.650;2023-04-08T11:42:52;102676.56;;;15.12;60.07
37852;BME280;23691;52.486;4.650;2023-04-08T11:45:19;102662.25;;;15.12;59.82
37852;BME280;23691;52.486;4.650;2023-04-08T11:47:49;102671.03;;;15.14;59.22
37852;BME280;23691;52.486;4.650;2023-04-08T11:50:25;102679.22;;;15.22;58.81
37852;BME280;23691;52.486;4.650;2023-04-08T11:52:51;102677.22;;;15.24;58.82
37852;BME280;23691;52.486;4.650;2023-04-08T11:55:25;102684.38;;;15.33;58.29
37852;BME280;23691;52.486;4.650;2023-04-08T11:57:51;102687.50;;;15.38;57.70
37852;BME280;23691;52.486;4.650;2023-04-08T12:00:17;102691.75;;;15.41;57.51
37852;BME280;23691;52.486;4.650;2023-04-08T12:02:43;102692.97;;;15.46;56.87
37852;BME280;23691;52.486;4.650;2023-04-08T12:05:09;102688.09;;;15.50;56.70
37852;BME280;23691;52.486;4.650;2023-04-08T12:07:34;102686.50;;;15.57;56.40
37852;BME280;23691;52.486;4.650;2023-04-08T12:10:00;102689.84;;;15.69;56.40
37852;BME280;23691;52.486;4.650;2023-04-08T12:12:26;102685.41;;;15.78;56.09
37852;BME280;23691;52.486;4.650;2023-04-08T12:14:51;102689.00;;;15.86;55.60
37852;BME280;23691;52.486;4.650;2023-04-08T12:17:17;102679.94;;;15.87;55.53
37852;BME280;23691;52.486;4.650;2023-04-08T12:19:43;102682.78;;;15.86;54.66
37852;BME280;23691;52.486;4.650;2023-04-08T12:22:08;102677.75;;;15.91;55.00
37852;BME280;23691;52.486;4.650;2023-04-08T12:24:33;102680.00;;;15.96;54.39
37852;BME280;23691;52.486;4.650;2023-04-08T12:26:59;102686.25;;;15.96;54.43
37852;BME280;23691;52.486;4.650;2023-04-08T12:29:26;102684.28;;;16.06;53.70
37852;BME280;23691;52.486;4.650;2023-04-08T12:31:54;102684.06;;;16.18;53.24
37852;BME280;23691;52.486;4.650;2023-04-08T12:34:19;102669.22;;;16.22;53.13
37852;BME280;23691;52.486;4.650;2023-04-08T12:36:45;102683.66;;;16.30;53.44
37852;BME280;23691;52.486;4.650;2023-04-08T12:39:11;102683.53;;;16.40;53.16
37852;BME280;23691;52.486;4.650;2023-04-08T12:41:37;102678.50;;;16.45;52.08
37852;BME280;23691;52.486;4.650;2023-04-08T12:44:02;102673.81;;;16.47;51.77
37852;BME280;23691;52.486;4.650;2023-04-08T12:46:27;102679.53;;;16.44;50.99
37852;BME280;23691;52.486;4.650;2023-04-08T12:48:53;102673.13;;;16.45;51.19
37852;BME280;23691;52.486;4.650;2023-04-08T12:51:18;102674.97;;;16.45;51.06
37852;BME280;23691;52.486;4.650;2023-04-08T12:53:44;102677.34;;;16.48;51.12
37852;BME280;23691;52.486;4.650;2023-04-08T12:56:09;102671.78;;;16.49;50.41
37852;BME280;23691;52.486;4.650;2023-04-08T12:58:35;102677.03;;;16.51;50.29
37852;BME280;23691;52.486;4.650;2023-04-08T13:01:00;102676.91;;;16.61;51.21
37852;BME280;23691;52.486;4.650;2023-04-08T13:03:26;102678.19;;;16.74;51.14
37852;BME280;23691;52.486;4.650;2023-04-08T13:05:54;102679.28;;;16.82;51.39
37852;BME280;23691;52.486;4.650;2023-04-08T13:08:20;102683.50;;;16.84;51.69
37852;BME280;23691;52.486;4.650;2023-04-08T13:10:46;102676.44;;;16.91;52.09
37852;BME280;23691;52.486;4.650;2023-04-08T13:13:15;102685.72;;;16.89;52.23
37852;BME280;23691;52.486;4.650;2023-04-08T13:15:40;102680.84;;;16.92;52.42